Munson Island, Florida
Current Conditions -  °F | °C
As of 3:53 AM on Saturday 25 Oct 2014 (Local Time) from KNQX Reporting Station
Clear Clear  
Wind Chill: 76°   Ceiling: Unl
Heat Index: 76°   Visibility: 10mi
Dew Point: 67°   Wind: 17mph
Humidity: 74%   Direction: 20°NNE
Pressure: 29.86"   Gusts: NA
Location:  24.5796°N, 81.6849°W
Report Text: KNQX 250753Z AUTO 02015KT 10SM CLR 24/19 A2986 RMK AO2 SLP108 T02440194 TSNO $
Loading
Personal Weather Stations






























Interactive Weather Map New forecast layout! Learn more

10-Day Weather Forecast

Advertisements
Track Severe Weather on mobile